Time;durP1;ratioP1;P1;durP2;ratioP2;P2;SDS_P1;SDS_P2;PMS_P1;PMS_P2;Temp;Humidity;BMP_temperature;BMP_pressure;BME280_temperature;BME280_humidity;BME280_pressure;Samples;Min_cycle;Max_cycle;Signal;HPM_P1;HPM_P2
2021/11/20 00:01:33;;;;;;;12.93;10.18;;;11.40;99.90;;;;;;5013024;28;20490;-87
2021/11/20 00:03:59;;;;;;;11.48;9.80;;;11.40;99.90;;;;;;5014187;28;20101;-87
2021/11/20 00:06:32;;;;;;;12.90;11.10;;;11.40;99.90;;;;;;5012941;28;20029;-87
2021/11/20 00:08:59;;;;;;;13.13;11.73;;;11.40;99.90;;;;;;5012566;28;20481;-87
2021/11/20 00:11:29;;;;;;;12.57;10.05;;;11.40;99.90;;;;;;5013817;28;20029;-87
2021/11/20 00:13:57;;;;;;;11.63;10.43;;;11.40;99.90;;;;;;5012848;28;20030;-86
2021/11/20 00:16:25;;;;;;;13.63;10.52;;;11.40;99.90;;;;;;5012473;28;20034;-86
2021/11/20 00:18:51;;;;;;;10.95;9.82;;;11.40;99.90;;;;;;5012666;28;20465;-87
2021/11/20 00:21:21;;;;;;;12.15;10.13;;;11.40;99.90;;;;;;5013842;28;20030;-86
2021/11/20 00:23:51;;;;;;;11.43;10.23;;;11.40;99.90;;;;;;5012908;28;20029;-87
2021/11/20 00:26:19;;;;;;;12.15;10.00;;;11.40;99.90;;;;;;5013884;28;20100;-86
2021/11/20 00:31:30;;;;;;;11.80;9.57;;;11.40;99.90;;;;;;5013942;28;20030;-86
2021/11/20 00:33:56;;;;;;;11.63;9.38;;;11.40;99.90;;;;;;5012960;28;20034;-86
2021/11/20 00:36:22;;;;;;;12.70;9.88;;;11.40;99.90;;;;;;5013596;28;20022;-87
2021/11/20 00:38:49;;;;;;;11.25;9.32;;;11.40;99.90;;;;;;5012731;28;20026;-86
2021/11/20 00:41:20;;;;;;;12.73;10.43;;;11.40;99.90;;;;;;5012321;28;20146;-86
2021/11/20 00:43:50;;;;;;;9.85;8.57;;;11.40;99.90;;;;;;5012478;28;20025;-86
2021/11/20 00:46:19;;;;;;;11.98;8.30;;;11.40;99.90;;;;;;5013885;28;20030;-86
2021/11/20 00:48:48;;;;;;;10.98;9.63;;;11.40;99.90;;;;;;5012626;28;20061;-86
2021/11/20 00:51:18;;;;;;;12.30;10.25;;;11.40;99.90;;;;;;5012456;28;20033;-86
2021/11/20 00:53:45;;;;;;;11.77;10.40;;;11.40;99.90;;;;;;5012570;28;20048;-87
2021/11/20 00:56:12;;;;;;;11.85;9.45;;;11.40;99.90;;;;;;5014382;28;20184;-86
2021/11/20 00:58:39;;;;;;;13.07;11.65;;;11.40;99.90;;;;;;5016376;28;20405;-87
2021/11/20 01:01:10;;;;;;;14.60;12.68;;;11.40;99.90;;;;;;5016022;28;20084;-87
2021/11/20 01:03:36;;;;;;;14.77;12.60;;;11.30;99.90;;;;;;5016185;28;20454;-87
2021/11/20 01:06:03;;;;;;;14.32;12.30;;;11.40;99.90;;;;;;5016200;28;20048;-87
2021/11/20 01:08:32;;;;;;;15.07;13.15;;;11.30;99.90;;;;;;5016998;28;20429;-87
2021/11/20 01:11:04;;;;;;;15.90;14.20;;;11.30;99.90;;;;;;5016045;28;20033;-87
2021/11/20 01:13:30;;;;;;;16.52;13.52;;;11.30;99.90;;;;;;5016216;28;20026;-87
2021/11/20 01:16:01;;;;;;;16.08;13.07;;;11.30;99.90;;;;;;5017411;28;20030;-87
2021/11/20 01:18:28;;;;;;;15.52;13.43;;;11.40;99.90;;;;;;5017166;28;20032;-87
2021/11/20 01:20:54;;;;;;;16.23;13.10;;;11.30;99.90;;;;;;5015780;28;20030;-86
2021/11/20 01:23:23;;;;;;;16.83;14.40;;;11.30;99.90;;;;;;5015757;28;20536;-86
2021/11/20 01:25:50;;;;;;;14.65;12.80;;;11.30;99.90;;;;;;5015542;28;20037;-87
2021/11/20 01:28:17;;;;;;;18.45;15.05;;;11.30;99.90;;;;;;5015738;28;20458;-87
2021/11/20 01:30:43;;;;;;;17.52;14.40;;;11.30;99.90;;;;;;5015803;28;20026;-87
2021/11/20 01:33:10;;;;;;;19.25;15.30;;;11.30;99.90;;;;;;5015468;28;20022;-87
2021/11/20 01:35:39;;;;;;;17.73;15.40;;;11.30;99.90;;;;;;5015307;28;20022;-87
2021/11/20 01:38:06;;;;;;;18.85;16.00;;;11.30;99.90;;;;;;5015640;28;20033;-87
2021/11/20 01:40:36;;;;;;;17.90;15.50;;;11.30;99.90;;;;;;5015113;28;20065;-87
2021/11/20 01:43:03;;;;;;;19.63;16.35;;;11.30;99.90;;;;;;5015435;28;20084;-87
2021/11/20 01:45:45;;;;;;;18.02;15.73;;;11.30;99.90;;;;;;5016772;28;20033;-87
2021/11/20 01:48:42;;;;;;;16.25;14.32;;;11.30;99.90;;;;;;5015404;28;20025;-88
2021/11/20 01:51:26;;;;;;;17.55;15.23;;;11.30;99.90;;;;;;5015481;28;20026;-88
2021/11/20 01:54:01;;;;;;;15.45;13.63;;;11.30;99.90;;;;;;5015365;28;20374;-87
2021/11/20 01:56:38;;;;;;;17.73;14.63;;;11.30;99.90;;;;;;5016253;28;20037;-87
2021/11/20 01:59:12;;;;;;;17.50;15.70;;;11.20;99.90;;;;;;5014749;28;20050;-87
2021/11/20 02:01:49;;;;;;;17.48;14.45;;;11.30;99.90;;;;;;5015174;28;20175;-88
2021/11/20 02:04:36;;;;;;;18.05;15.35;;;11.30;99.90;;;;;;5015267;28;20024;-87
2021/11/20 02:07:16;;;;;;;16.90;13.93;;;11.20;99.90;;;;;;5013881;28;20041;-87
2021/11/20 02:10:15;;;;;;;17.13;14.40;;;11.20;99.90;;;;;;5015076;28;20022;-87
2021/11/20 02:12:52;;;;;;;16.38;14.52;;;11.20;99.90;;;;;;5015353;28;20084;-87
2021/11/20 02:15:26;;;;;;;17.15;14.25;;;11.20;99.90;;;;;;5014848;28;20022;-87
2021/11/20 02:17:55;;;;;;;15.95;13.20;;;11.20;99.90;;;;;;5014885;28;20018;-88
2021/11/20 02:20:53;;;;;;;14.32;12.48;;;11.20;99.90;;;;;;5014766;28;20030;-87
2021/11/20 02:23:19;;;;;;;14.20;12.27;;;11.20;99.90;;;;;;5014760;28;20033;-87
2021/11/20 02:25:46;;;;;;;14.05;11.82;;;11.20;99.90;;;;;;5016001;28;20030;-87
2021/11/20 02:28:12;;;;;;;14.18;12.63;;;11.20;99.90;;;;;;5014592;28;20061;-87
2021/11/20 02:30:41;;;;;;;16.98;13.10;;;11.20;99.90;;;;;;5014235;28;20115;-87
2021/11/20 02:33:20;;;;;;;17.45;15.40;;;11.20;99.90;;;;;;5015423;28;20030;-87
2021/11/20 02:36:02;;;;;;;16.63;14.45;;;11.20;99.90;;;;;;5014400;28;20026;-87
2021/11/20 02:38:32;;;;;;;17.25;14.73;;;11.20;99.90;;;;;;5014271;28;20053;-88
2021/11/20 02:41:01;;;;;;;17.75;14.75;;;11.10;99.90;;;;;;5015036;28;20124;-87
2021/11/20 02:43:31;;;;;;;19.00;14.80;;;11.20;99.90;;;;;;5014607;28;20022;-88
2021/11/20 02:45:58;;;;;;;16.60;14.88;;;11.10;99.90;;;;;;5014446;28;20030;-87
2021/11/20 02:48:25;;;;;;;17.50;14.82;;;11.10;99.90;;;;;;5015203;28;20026;-87
2021/11/20 02:51:17;;;;;;;14.98;13.38;;;11.10;99.90;;;;;;5015416;28;20017;-87
2021/11/20 02:53:48;;;;;;;16.00;13.63;;;11.10;99.90;;;;;;5044200;28;20038;-88
2021/11/20 02:56:18;;;;;;;16.92;15.07;;;11.10;99.90;;;;;;5014401;28;20091;-88
2021/11/20 02:58:44;;;;;;;17.58;15.07;;;11.10;99.90;;;;;;5013836;28;20025;-88
2021/11/20 03:01:14;;;;;;;19.60;15.90;;;11.10;99.90;;;;;;5013543;28;20378;-86
2021/11/20 03:03:41;;;;;;;18.75;15.52;;;11.10;99.90;;;;;;5013637;28;20084;-87
2021/11/20 03:06:07;;;;;;;18.42;15.95;;;11.10;99.90;;;;;;5013901;28;20030;-87
2021/11/20 03:08:35;;;;;;;22.05;17.20;;;11.10;99.90;;;;;;5013473;28;20374;-87
2021/11/20 03:11:02;;;;;;;20.85;17.45;;;11.10;99.90;;;;;;5013310;28;20124;-86
2021/11/20 03:13:29;;;;;;;20.95;17.33;;;11.10;99.90;;;;;;5014918;28;20030;-87
2021/11/20 03:15:54;;;;;;;20.67;17.92;;;11.10;99.90;;;;;;5013781;28;20061;-87
2021/11/20 03:18:20;;;;;;;21.80;17.98;;;11.10;99.90;;;;;;5013362;28;20057;-87
2021/11/20 03:20:47;;;;;;;20.40;17.88;;;11.10;99.90;;;;;;5013948;28;20022;-87
2021/11/20 03:23:22;;;;;;;21.95;16.73;;;11.10;99.90;;;;;;5014898;28;20018;-87
2021/11/20 03:25:48;;;;;;;20.55;17.13;;;11.10;99.90;;;;;;5014702;28;20117;-87
2021/11/20 03:28:14;;;;;;;19.48;15.93;;;11.10;99.90;;;;;;5014458;28;20058;-87
2021/11/20 03:30:41;;;;;;;20.58;17.33;;;11.10;99.90;;;;;;5013561;28;20116;-87
2021/11/20 03:33:08;;;;;;;19.58;15.80;;;11.10;99.90;;;;;;5013186;28;20133;-87
2021/11/20 03:35:35;;;;;;;21.70;18.40;;;11.10;99.90;;;;;;5013260;28;20030;-87
2021/11/20 03:38:03;;;;;;;20.10;17.15;;;11.10;99.90;;;;;;5012868;28;20029;-87
2021/11/20 03:40:33;;;;;;;20.13;17.00;;;11.10;99.90;;;;;;5012834;28;20076;-87
2021/11/20 03:42:59;;;;;;;23.42;19.33;;;11.10;99.90;;;;;;5013295;28;20030;-87
2021/11/20 03:45:28;;;;;;;21.48;18.67;;;11.10;99.90;;;;;;5014943;28;20034;-87
2021/11/20 03:47:54;;;;;;;21.08;17.70;;;11.10;99.90;;;;;;5014450;28;20026;-88
2021/11/20 03:50:20;;;;;;;22.77;18.70;;;11.10;99.90;;;;;;5013165;28;20018;-87
2021/11/20 03:52:46;;;;;;;22.50;18.73;;;11.10;99.90;;;;;;5013062;28;20033;-88
2021/11/20 03:55:17;;;;;;;25.75;19.95;;;11.10;99.90;;;;;;5013145;28;20038;-87
2021/11/20 03:57:43;;;;;;;22.98;18.95;;;11.10;99.90;;;;;;5012974;28;20028;-87
2021/11/20 04:00:14;;;;;;;23.33;19.25;;;11.10;99.90;;;;;;5013784;28;20470;-87
2021/11/20 04:02:42;;;;;;;23.55;19.60;;;11.10;99.90;;;;;;5014064;28;20044;-87
2021/11/20 04:05:09;;;;;;;21.13;18.13;;;11.00;99.90;;;;;;5013022;28;20030;-87
2021/11/20 04:07:35;;;;;;;23.58;18.55;;;11.10;99.90;;;;;;5013084;28;20093;-87
2021/11/20 04:10:04;;;;;;;24.70;19.80;;;11.00;99.90;;;;;;5013819;28;20022;-87
2021/11/20 04:12:30;;;;;;;22.98;18.52;;;11.00;99.90;;;;;;5012887;28;20061;-87
2021/11/20 04:14:56;;;;;;;26.88;20.75;;;11.00;99.90;;;;;;5012820;28;20023;-87
2021/11/20 04:17:22;;;;;;;24.83;19.65;;;11.00;99.90;;;;;;5012805;28;20026;-87
2021/11/20 04:19:48;;;;;;;24.33;18.85;;;11.00;99.90;;;;;;5012837;28;20033;-87
2021/11/20 04:22:14;;;;;;;21.60;18.25;;;11.00;99.90;;;;;;5012599;28;20022;-87
2021/11/20 04:24:40;;;;;;;20.80;16.98;;;11.00;99.90;;;;;;5012677;28;20033;-87
2021/11/20 04:27:09;;;;;;;20.30;17.02;;;11.00;99.90;;;;;;5012788;28;20116;-87
2021/11/20 04:29:35;;;;;;;24.90;19.23;;;11.00;99.90;;;;;;5013861;28;20029;-87
2021/11/20 04:32:00;;;;;;;25.70;21.13;;;11.00;99.90;;;;;;5016088;28;20030;-87
2021/11/20 04:34:27;;;;;;;26.20;21.48;;;11.00;99.90;;;;;;5016635;28;20159;-87
2021/11/20 04:36:53;;;;;;;24.73;19.55;;;11.00;99.90;;;;;;5017575;28;20025;-87
2021/11/20 04:39:18;;;;;;;25.90;21.05;;;11.00;99.90;;;;;;5016637;28;20026;-87
2021/11/20 04:41:45;;;;;;;27.15;21.42;;;11.00;99.90;;;;;;5017386;28;20049;-86
2021/11/20 04:44:12;;;;;;;24.73;19.65;;;11.00;99.90;;;;;;5016704;28;20567;-87
2021/11/20 04:46:39;;;;;;;25.10;19.75;;;11.00;99.90;;;;;;5016672;28;20033;-87
2021/11/20 04:49:06;;;;;;;27.02;21.55;;;11.00;99.90;;;;;;5016257;28;20030;-87
2021/11/20 04:51:33;;;;;;;25.77;19.80;;;11.00;99.90;;;;;;5016043;28;20113;-87
2021/11/20 04:53:59;;;;;;;25.63;21.02;;;11.00;99.90;;;;;;5016572;28;20030;-87
2021/11/20 04:56:27;;;;;;;25.13;20.35;;;11.00;99.90;;;;;;5016243;28;20026;-87
2021/11/20 04:58:54;;;;;;;26.02;20.17;;;11.00;99.90;;;;;;5016347;28;20088;-87
2021/11/20 05:01:22;;;;;;;27.92;21.38;;;11.00;99.90;;;;;;5016120;28;20144;-87
2021/11/20 05:03:50;;;;;;;29.58;23.02;;;10.90;99.90;;;;;;5017108;28;20097;-87
2021/11/20 05:06:18;;;;;;;27.98;22.08;;;11.00;99.90;;;;;;5017097;28;20034;-87
2021/11/20 05:08:45;;;;;;;26.20;21.13;;;10.90;99.90;;;;;;5016091;28;20029;-87
2021/11/20 05:11:12;;;;;;;29.25;23.05;;;10.90;99.90;;;;;;5015452;28;20030;-87
2021/11/20 05:13:39;;;;;;;27.95;21.80;;;10.90;99.90;;;;;;5015998;28;20014;-87
2021/11/20 05:16:05;;;;;;;26.95;21.13;;;10.90;99.90;;;;;;5015870;28;20033;-88
2021/11/20 05:18:32;;;;;;;30.10;22.67;;;10.90;99.90;;;;;;5016058;28;20497;-87
2021/11/20 05:21:02;;;;;;;30.33;23.40;;;10.90;99.90;;;;;;5015971;28;20084;-88
2021/11/20 05:23:31;;;;;;;30.85;22.10;;;10.90;99.90;;;;;;5015997;28;20120;-87
2021/11/20 05:25:58;;;;;;;29.83;22.83;;;10.90;99.90;;;;;;5015819;28;20378;-87
2021/11/20 05:28:24;;;;;;;30.17;22.67;;;10.90;99.90;;;;;;5016489;28;20018;-87
2021/11/20 05:30:51;;;;;;;33.58;24.42;;;10.90;99.90;;;;;;5015711;28;20022;-87
2021/11/20 05:33:31;;;;;;;33.60;23.80;;;10.90;99.90;;;;;;5015608;28;20030;-87
2021/11/20 05:35:57;;;;;;;31.38;23.10;;;10.90;99.90;;;;;;5015700;28;20041;-87
2021/11/20 05:38:23;;;;;;;28.50;21.55;;;10.90;99.90;;;;;;5015553;28;20053;-87
2021/11/20 05:40:49;;;;;;;29.02;21.55;;;10.90;99.90;;;;;;5015172;28;20081;-87
2021/11/20 05:43:18;;;;;;;28.42;21.35;;;10.90;99.90;;;;;;5015258;28;20026;-87
2021/11/20 05:45:50;;;;;;;29.20;21.27;;;10.90;99.90;;;;;;5015586;28;20386;-87
2021/11/20 05:48:16;;;;;;;31.52;22.70;;;10.90;99.90;;;;;;5016954;28;20156;-87
2021/11/20 05:50:43;;;;;;;31.90;22.80;;;10.90;99.90;;;;;;5016570;28;20030;-87
2021/11/20 05:53:15;;;;;;;34.35;22.90;;;10.90;99.90;;;;;;4998196;28;20107;-87
2021/11/20 05:55:43;;;;;;;35.08;25.40;;;10.90;99.90;;;;;;5015261;28;20481;-88
2021/11/20 05:58:09;;;;;;;34.53;24.98;;;10.90;99.90;;;;;;5015340;28;20113;-87
2021/11/20 06:00:40;;;;;;;34.58;24.17;;;10.90;99.90;;;;;;5014814;28;20484;-87
2021/11/20 06:03:07;;;;;;;33.40;24.13;;;10.90;99.90;;;;;;5015764;28;20056;-87
2021/11/20 06:05:34;;;;;;;35.05;24.70;;;10.90;99.90;;;;;;5016183;28;20477;-87
2021/11/20 06:08:00;;;;;;;31.58;22.92;;;10.90;99.90;;;;;;5015206;28;20026;-87
2021/11/20 06:10:26;;;;;;;33.72;23.33;;;10.90;99.90;;;;;;5015063;28;20121;-87
2021/11/20 06:12:52;;;;;;;37.63;24.70;;;10.90;99.90;;;;;;4999878;28;20057;-88
2021/11/20 06:15:19;;;;;;;32.38;23.92;;;10.90;99.90;;;;;;5015997;28;20433;-87
2021/11/20 06:17:45;;;;;;;33.78;21.85;;;10.90;99.90;;;;;;5014706;28;20072;-87
2021/11/20 06:20:11;;;;;;;36.05;23.80;;;10.90;99.90;;;;;;5015219;28;20030;-88
2021/11/20 06:22:37;;;;;;;29.25;20.55;;;10.90;99.90;;;;;;5014469;28;20437;-88
2021/11/20 06:25:05;;;;;;;34.40;23.33;;;10.90;99.90;;;;;;5015101;28;20038;-89
2021/11/20 06:27:32;;;;;;;36.70;24.85;;;10.90;99.90;;;;;;5014890;28;20014;-89
2021/11/20 06:29:58;;;;;;;33.45;22.73;;;10.90;99.90;;;;;;5015039;28;20026;-89
2021/11/20 06:32:23;;;;;;;33.45;23.10;;;10.80;99.90;;;;;;5014576;28;20164;-89
2021/11/20 06:34:49;;;;;;;37.30;25.10;;;10.90;99.90;;;;;;5014604;28;20124;-88
2021/11/20 06:37:15;;;;;;;35.45;24.20;;;10.90;99.90;;;;;;5015808;28;20180;-89
2021/11/20 06:39:41;;;;;;;33.95;23.63;;;10.90;99.90;;;;;;5014564;28;20077;-89
2021/11/20 06:42:07;;;;;;;36.88;23.80;;;10.90;99.90;;;;;;5014695;28;20025;-88
2021/11/20 06:44:34;;;;;;;33.67;23.05;;;10.80;99.90;;;;;;5014704;28;20053;-88
2021/11/20 06:47:00;;;;;;;33.53;23.27;;;10.90;99.90;;;;;;5014622;28;20022;-88
2021/11/20 06:49:26;;;;;;;32.97;21.98;;;10.80;99.90;;;;;;5015464;28;20022;-88
2021/11/20 06:51:52;;;;;;;36.83;24.45;;;10.80;99.90;;;;;;5015485;28;20030;-88
2021/11/20 06:54:18;;;;;;;36.10;23.98;;;10.80;99.90;;;;;;5013707;28;20022;-88
2021/11/20 06:56:52;;;;;;;37.20;24.55;;;10.80;99.90;;;;;;5013799;28;20026;-88
2021/11/20 07:01:51;;;;;;;35.67;23.58;;;10.80;99.90;;;;;;5015450;28;20119;-86
2021/11/20 07:04:25;;;;;;;36.35;24.85;;;10.90;99.90;;;;;;5014216;28;20041;-89
2021/11/20 07:06:58;;;;;;;32.80;23.27;;;10.80;99.90;;;;;;5014323;28;20029;-88
2021/11/20 07:09:25;;;;;;;32.17;23.00;;;10.90;99.90;;;;;;5014243;28;20033;-88
2021/11/20 07:11:52;;;;;;;32.88;23.38;;;10.80;99.90;;;;;;5015552;28;20022;-89
2021/11/20 07:14:19;;;;;;;37.13;24.20;;;10.80;99.90;;;;;;5014467;28;20022;-88
2021/11/20 07:16:46;;;;;;;38.47;25.55;;;10.80;99.90;;;;;;5014128;28;20390;-88
2021/11/20 07:19:12;;;;;;;36.88;24.52;;;10.80;99.90;;;;;;5014200;28;20026;-89
2021/11/20 07:21:38;;;;;;;34.33;23.70;;;10.80;99.90;;;;;;5013869;28;20030;-90
2021/11/20 07:24:09;;;;;;;36.58;24.10;;;10.80;99.90;;;;;;5014058;28;20022;-88
2021/11/20 07:26:36;;;;;;;40.80;28.10;;;10.80;99.90;;;;;;5014039;28;20116;-89
2021/11/20 07:29:04;;;;;;;38.72;26.75;;;10.80;99.90;;;;;;5013778;28;20022;-89
2021/11/20 07:31:30;;;;;;;37.25;25.60;;;10.80;99.90;;;;;;5013883;28;20022;-88
2021/11/20 07:34:01;;;;;;;36.38;25.55;;;10.80;99.90;;;;;;5014720;28;20046;-89
2021/11/20 07:36:28;;;;;;;38.03;26.08;;;10.80;99.90;;;;;;5011225;28;20065;-88
2021/11/20 07:38:57;;;;;;;31.58;21.90;;;10.80;99.90;;;;;;5012383;28;20033;-88
2021/11/20 07:41:27;;;;;;;43.42;29.08;;;10.80;99.90;;;;;;5012826;28;20370;-88
2021/11/20 07:43:53;;;;;;;42.65;29.15;;;10.80;99.90;;;;;;5013255;28;20072;-89
2021/11/20 07:46:19;;;;;;;40.40;27.10;;;10.80;99.90;;;;;;5012175;28;20026;-87
2021/11/20 07:48:45;;;;;;;39.63;27.17;;;10.80;99.90;;;;;;5012365;28;20394;-88
2021/11/20 07:51:13;;;;;;;37.20;26.90;;;10.90;99.90;;;;;;5015702;28;20089;-87
2021/11/20 07:53:41;;;;;;;38.15;27.50;;;10.80;99.90;;;;;;5011574;28;20421;-87
2021/11/20 07:56:08;;;;;;;38.45;27.70;;;10.80;99.90;;;;;;5011261;28;20029;-88
2021/11/20 07:58:35;;;;;;;41.72;27.90;;;10.80;99.90;;;;;;5011952;28;20018;-87
2021/11/20 08:01:00;;;;;;;41.17;27.73;;;10.80;99.90;;;;;;5011917;28;20030;-87
2021/11/20 08:03:27;;;;;;;45.65;32.08;;;10.80;99.90;;;;;;5012284;28;20022;-86
2021/11/20 08:05:55;;;;;;;46.95;32.30;;;10.80;99.90;;;;;;5010728;28;20030;-88
2021/11/20 08:08:21;;;;;;;47.00;32.85;;;10.80;99.90;;;;;;5011785;28;20377;-87
2021/11/20 08:10:49;;;;;;;46.97;33.22;;;10.80;99.90;;;;;;5012801;28;20032;-88
2021/11/20 08:13:17;;;;;;;48.05;32.65;;;10.80;99.90;;;;;;5011964;28;20018;-87
2021/11/20 08:15:45;;;;;;;54.20;37.50;;;10.80;99.90;;;;;;5011410;28;20774;-86
2021/11/20 08:18:11;;;;;;;54.75;38.15;;;10.80;99.90;;;;;;5011038;28;20052;-87
2021/11/20 08:20:41;;;;;;;49.83;34.67;;;10.80;99.90;;;;;;5010942;28;20022;-87
2021/11/20 08:23:10;;;;;;;51.80;36.17;;;10.80;99.90;;;;;;5011140;28;20482;-88
2021/11/20 08:25:38;;;;;;;51.85;37.50;;;10.80;99.90;;;;;;5011216;28;20477;-88
2021/11/20 08:28:05;;;;;;;51.97;37.90;;;10.80;99.90;;;;;;5010769;28;20026;-87
2021/11/20 08:30:31;;;;;;;48.42;35.33;;;10.80;99.90;;;;;;5010991;28;20030;-85
2021/11/20 08:32:59;;;;;;;55.58;41.05;;;10.80;99.90;;;;;;5010702;28;20045;-87
2021/11/20 08:35:26;;;;;;;52.67;38.08;;;10.90;99.90;;;;;;5010582;28;20121;-87
2021/11/20 08:37:52;;;;;;;53.70;37.65;;;10.90;99.90;;;;;;5010318;28;20340;-87
2021/11/20 08:40:22;;;;;;;58.38;42.42;;;10.90;99.90;;;;;;5008982;28;20390;-86
2021/11/20 08:42:48;;;;;;;56.88;41.25;;;10.90;99.90;;;;;;5011339;28;20406;-87
2021/11/20 08:45:21;;;;;;;53.47;38.85;;;10.90;99.90;;;;;;5010424;28;20077;-86
2021/11/20 08:47:49;;;;;;;54.00;39.50;;;10.90;99.90;;;;;;5010583;28;20026;-87
2021/11/20 08:50:20;;;;;;;51.95;36.60;;;10.90;99.90;;;;;;5010434;28;20494;-87
2021/11/20 08:52:46;;;;;;;53.97;39.40;;;10.90;99.90;;;;;;5021252;28;20037;-87
2021/11/20 08:55:13;;;;;;;55.42;40.42;;;10.90;99.90;;;;;;5028450;28;20048;-87
2021/11/20 08:57:40;;;;;;;53.70;40.05;;;10.90;99.90;;;;;;5028524;28;20033;-88
2021/11/20 09:00:15;;;;;;;49.70;36.55;;;10.90;99.90;;;;;;5044762;28;20057;-87
2021/11/20 09:02:47;;;;;;;52.95;39.25;;;10.90;99.90;;;;;;5028097;28;20028;-87
2021/11/20 09:05:58;;;;;;;55.15;39.88;;;10.90;99.90;;;;;;5011884;28;20037;-87
2021/11/20 09:09:01;;;;;;;51.70;37.42;;;10.90;99.90;;;;;;5029480;28;20056;-87
2021/11/20 09:11:36;;;;;;;48.17;36.67;;;10.90;99.90;;;;;;5019521;28;20095;-87
2021/11/20 09:14:06;;;;;;;50.25;38.50;;;10.90;99.90;;;;;;5030106;28;20075;-87
2021/11/20 09:16:33;;;;;;;52.60;39.35;;;10.90;99.90;;;;;;5014904;28;20136;-87
2021/11/20 09:19:00;;;;;;;55.40;39.47;;;10.90;99.90;;;;;;5035159;28;20113;-88
2021/11/20 09:21:29;;;;;;;63.17;41.28;;;11.00;99.90;;;;;;5035399;28;20477;-88
2021/11/20 09:23:55;;;;;;;52.58;37.13;;;11.00;99.90;;;;;;5035032;28;20034;-87
2021/11/20 09:26:22;;;;;;;49.22;36.10;;;11.00;99.90;;;;;;5018145;28;20496;-87
2021/11/20 09:28:47;;;;;;;49.67;37.75;;;11.00;99.90;;;;;;5019996;28;20113;-87
2021/11/20 09:31:14;;;;;;;61.58;39.75;;;11.00;99.90;;;;;;5036089;28;20056;-87
2021/11/20 09:33:41;;;;;;;57.25;42.33;;;11.00;99.90;;;;;;5036822;28;20461;-88
2021/11/20 09:36:07;;;;;;;50.33;36.15;;;11.10;99.90;;;;;;5035721;28;20037;-88
2021/11/20 09:38:34;;;;;;;51.00;37.85;;;11.00;99.90;;;;;;5035067;28;20036;-88
2021/11/20 09:41:22;;;;;;;48.22;36.92;;;11.10;99.90;;;;;;5035321;28;20132;-87
2021/11/20 09:43:58;;;;;;;45.65;34.70;;;11.10;99.90;;;;;;5020540;28;20484;-87
2021/11/20 09:46:32;;;;;;;44.80;34.70;;;11.10;99.90;;;;;;5035341;28;20108;-87
2021/11/20 09:49:15;;;;;;;44.17;34.22;;;11.20;99.90;;;;;;5035193;28;20030;-87
2021/11/20 09:51:47;;;;;;;49.17;37.17;;;11.20;99.90;;;;;;5018837;28;20052;-87
2021/11/20 09:54:19;;;;;;;45.72;35.15;;;11.20;99.90;;;;;;5035041;28;20056;-86
2021/11/20 09:56:50;;;;;;;47.80;36.35;;;11.20;99.90;;;;;;5034782;28;20033;-87
2021/11/20 09:59:49;;;;;;;45.45;34.78;;;11.20;99.90;;;;;;5034991;28;20021;-87
2021/11/20 10:02:29;;;;;;;41.00;31.27;;;11.20;99.90;;;;;;5018330;28;20044;-87
2021/11/20 10:05:21;;;;;;;46.95;36.70;;;11.20;99.90;;;;;;5036145;28;20458;-88
2021/11/20 10:07:51;;;;;;;41.92;32.13;;;11.20;99.90;;;;;;5027053;28;20124;-87
2021/11/20 10:10:34;;;;;;;49.40;36.88;;;11.20;99.90;;;;;;5034908;28;20033;-87
2021/11/20 10:13:13;;;;;;;48.30;36.58;;;11.20;99.90;;;;;;5034725;28;20030;-87
2021/11/20 10:16:18;;;;;;;46.70;36.03;;;11.20;99.90;;;;;;5034592;28;20029;-87
2021/11/20 10:19:02;;;;;;;47.17;35.75;;;11.30;99.90;;;;;;5032590;28;20033;-88
2021/11/20 10:21:36;;;;;;;54.15;39.00;;;11.30;99.90;;;;;;5035641;28;20124;-87
2021/11/20 10:24:08;;;;;;;49.45;36.70;;;11.20;99.90;;;;;;5035968;28;20025;-87
2021/11/20 10:26:53;;;;;;;51.13;34.75;;;11.20;99.90;;;;;;5034597;28;20044;-87
2021/11/20 10:29:27;;;;;;;49.80;36.90;;;11.30;99.90;;;;;;5033358;28;20026;-87
2021/11/20 10:32:12;;;;;;;49.00;37.53;;;11.20;99.90;;;;;;5035149;28;20366;-88
2021/11/20 10:34:55;;;;;;;49.47;35.72;;;11.20;99.90;;;;;;5018652;28;20080;-87
2021/11/20 10:37:33;;;;;;;50.20;37.15;;;11.30;99.90;;;;;;5034262;28;20021;-87
2021/11/20 10:40:07;;;;;;;48.28;35.08;;;11.30;99.90;;;;;;5035380;28;20481;-85
2021/11/20 10:42:40;;;;;;;;;;;11.30;99.90;;;;;;5034641;28;20022;-86
2021/11/20 10:45:13;;;;;;;48.00;36.28;;;11.20;99.90;;;;;;5035477;28;19904;-87
2021/11/20 10:47:57;;;;;;;51.28;37.08;;;11.30;99.90;;;;;;5034535;28;20557;-87
2021/11/20 10:50:45;;;;;;;50.15;36.72;;;11.30;99.90;;;;;;5018227;28;20082;-87
2021/11/20 10:53:28;;;;;;;45.78;34.60;;;11.30;99.90;;;;;;5034028;28;20094;-86
2021/11/20 10:56:23;;;;;;;45.17;33.50;;;11.30;99.90;;;;;;5033259;28;20038;-86
2021/11/20 10:59:04;;;;;;;41.95;31.33;;;11.30;99.90;;;;;;5032175;28;20030;-86
2021/11/20 11:01:57;;;;;;;44.20;33.63;;;11.30;99.90;;;;;;5033795;28;20025;-87
2021/11/20 11:04:26;;;;;;;;;;;11.30;99.90;;;;;;5034262;28;20511;-86
2021/11/20 11:07:16;;;;;;;44.17;32.05;;;11.30;99.90;;;;;;5035340;28;19913;-86
2021/11/20 11:10:02;;;;;;;41.20;31.60;;;11.30;99.90;;;;;;5033900;28;20529;-86
2021/11/20 11:12:54;;;;;;;42.83;32.10;;;11.30;99.90;;;;;;5035019;28;20025;-87
2021/11/20 11:15:41;;;;;;;43.47;32.88;;;11.40;99.90;;;;;;5019288;28;20099;-86
2021/11/20 11:18:31;;;;;;;45.08;32.95;;;11.40;99.90;;;;;;5033253;28;20116;-86
2021/11/20 11:21:19;;;;;;;46.60;33.50;;;11.40;99.90;;;;;;5033447;28;20384;-87
2021/11/20 11:24:09;;;;;;;46.53;34.88;;;11.30;99.90;;;;;;5033080;28;20119;-86
2021/11/20 11:26:54;;;;;;;46.38;33.88;;;11.40;99.90;;;;;;5033346;28;20032;-87
2021/11/20 11:29:25;;;;;;;51.08;35.13;;;11.30;99.90;;;;;;5033392;28;20034;-85
2021/11/20 11:31:52;;;;;;;50.15;36.53;;;11.40;99.90;;;;;;5033063;28;20030;-86
2021/11/20 11:34:27;;;;;;;51.75;37.08;;;11.30;99.90;;;;;;5036978;28;20029;-86
2021/11/20 11:37:19;;;;;;;53.53;40.13;;;11.40;99.90;;;;;;5036537;28;20535;-86
2021/11/20 11:40:18;;;;;;;49.95;35.85;;;11.30;99.90;;;;;;5032720;28;20050;-87
2021/11/20 11:43:08;;;;;;;47.67;34.92;;;11.30;99.90;;;;;;5033383;28;20362;-88
2021/11/20 11:45:35;;;;;;;51.80;37.13;;;11.40;99.90;;;;;;5032980;28;20477;-87
2021/11/20 11:48:26;;;;;;;51.35;36.30;;;11.40;99.90;;;;;;5033088;28;20049;-86
2021/11/20 11:51:11;;;;;;;50.90;37.30;;;11.40;99.90;;;;;;5034477;28;20025;-86
2021/11/20 11:54:11;;;;;;;44.33;32.75;;;11.40;99.90;;;;;;5033216;28;20031;-86
2021/11/20 11:56:44;;;;;;;51.17;37.95;;;11.40;99.90;;;;;;5032783;28;20037;-86
2021/11/20 11:59:35;;;;;;;50.72;36.70;;;11.40;99.90;;;;;;5032479;28;20025;-86
2021/11/20 12:02:23;;;;;;;49.80;35.97;;;11.40;99.90;;;;;;5029462;28;20061;-87
2021/11/20 12:04:56;;;;;;;53.42;38.35;;;11.40;99.90;;;;;;5032817;28;20060;-86
2021/11/20 12:07:25;;;;;;;52.05;38.65;;;11.30;99.90;;;;;;5016473;28;20113;-87
2021/11/20 12:10:10;;;;;;;48.05;34.83;;;11.40;99.90;;;;;;5033777;28;20393;-86
2021/11/20 12:12:39;;;;;;;47.85;35.72;;;11.40;99.90;;;;;;5032529;28;20529;-86
2021/11/20 12:15:37;;;;;;;48.97;34.60;;;11.30;99.90;;;;;;5032506;28;20432;-86
2021/11/20 12:18:25;;;;;;;43.95;33.50;;;11.40;99.90;;;;;;5032799;28;20021;-86
2021/11/20 12:20:57;;;;;;;40.95;30.63;;;11.30;99.90;;;;;;5032428;28;20025;-86
2021/11/20 12:23:51;;;;;;;39.67;29.25;;;11.30;99.90;;;;;;5032463;28;20115;-87
2021/11/20 12:26:29;;;;;;;42.15;29.67;;;11.30;99.90;;;;;;5032835;28;20086;-87
2021/11/20 12:29:13;;;;;;;42.83;31.13;;;11.40;99.90;;;;;;5032474;28;20029;-87
2021/11/20 12:32:01;;;;;;;35.97;27.13;;;11.40;99.90;;;;;;5032556;28;20142;-87
2021/11/20 12:34:38;;;;;;;37.35;26.95;;;11.40;99.90;;;;;;5032410;28;20057;-86
2021/11/20 12:37:19;;;;;;;40.42;28.40;;;11.40;99.90;;;;;;5032140;28;20392;-86
2021/11/20 12:39:55;;;;;;;35.22;27.10;;;11.40;99.90;;;;;;5032274;28;20124;-86
2021/11/20 12:42:59;;;;;;;35.00;26.63;;;11.40;99.90;;;;;;5033467;28;20071;-86
2021/11/20 12:45:47;;;;;;;34.20;25.40;;;11.40;99.90;;;;;;5033241;28;20037;-87
2021/11/20 12:48:43;;;;;;;38.35;27.58;;;11.40;99.90;;;;;;5033258;28;20022;-86
2021/11/20 12:51:22;;;;;;;37.00;27.10;;;11.40;99.90;;;;;;5033709;28;20025;-87
2021/11/20 12:53:57;;;;;;;37.17;26.88;;;11.40;99.90;;;;;;5037066;28;20030;-86
2021/11/20 12:56:36;;;;;;;37.97;25.10;;;11.40;99.90;;;;;;5036351;28;20534;-87
2021/11/20 12:59:27;;;;;;;38.85;26.73;;;11.40;99.90;;;;;;5036453;28;20469;-86